createdAt,value
2023-04-26T00:01:29.916Z,59.00
2023-04-26T00:03:56.620Z,58.88
2023-04-26T00:06:23.335Z,60.40
2023-04-26T00:08:49.925Z,60.70
2023-04-26T00:11:16.430Z,60.46
2023-04-26T00:13:42.787Z,60.67
2023-04-26T00:16:09.304Z,61.65
2023-04-26T00:18:35.742Z,61.51
2023-04-26T00:21:02.699Z,61.83
2023-04-26T00:23:29.104Z,59.99
2023-04-26T00:25:56.953Z,61.10
2023-04-26T00:28:23.435Z,61.29
2023-04-26T00:30:51.094Z,61.64
2023-04-26T00:33:17.420Z,62.55
2023-04-26T00:35:43.745Z,62.97
2023-04-26T00:38:10.173Z,62.46
2023-04-26T00:40:36.645Z,62.05
2023-04-26T00:43:03.485Z,60.41
2023-04-26T00:45:30.416Z,60.35
2023-04-26T00:47:57.205Z,61.40
2023-04-26T00:50:24.375Z,61.91
2023-04-26T00:52:51.193Z,61.79
2023-04-26T00:55:18.761Z,60.71
2023-04-26T00:57:45.931Z,60.84
2023-04-26T01:00:12.923Z,62.18
2023-04-26T01:02:39.502Z,60.62
2023-04-26T01:05:06.655Z,61.74
2023-04-26T01:07:33.484Z,60.25
2023-04-26T01:10:00.336Z,60.51
2023-04-26T01:12:27.010Z,61.91
2023-04-26T01:14:54.256Z,63.02
2023-04-26T01:17:20.712Z,63.15
2023-04-26T01:19:50.991Z,62.99
2023-04-26T01:22:17.734Z,63.47
2023-04-26T01:24:46.574Z,63.32
2023-04-26T01:27:13.012Z,62.58
2023-04-26T01:29:39.548Z,63.21
2023-04-26T01:32:05.915Z,63.21
2023-04-26T01:34:34.359Z,63.42
2023-04-26T01:37:01.517Z,63.93
2023-04-26T01:39:27.984Z,63.64
2023-04-26T01:41:54.330Z,63.15
2023-04-26T01:44:20.813Z,62.96
2023-04-26T01:46:47.257Z,63.07
2023-04-26T01:49:13.730Z,62.42
2023-04-26T01:51:40.197Z,63.16
2023-04-26T01:54:06.545Z,63.39
2023-04-26T01:56:33.010Z,62.58
2023-04-26T01:58:59.552Z,62.82
2023-04-26T02:01:26.079Z,62.37
2023-04-26T02:03:52.844Z,62.52
2023-04-26T02:06:19.618Z,62.39
2023-04-26T02:08:46.144Z,62.49
2023-04-26T02:11:12.585Z,62.74
2023-04-26T02:13:38.919Z,62.77
2023-04-26T02:16:06.129Z,63.20
2023-04-26T02:18:32.507Z,62.93
2023-04-26T02:20:58.861Z,62.73
2023-04-26T02:23:25.400Z,62.81
2023-04-26T02:25:51.971Z,62.56
2023-04-26T02:28:18.430Z,64.17
2023-04-26T02:30:44.929Z,64.42
2023-04-26T02:33:11.538Z,64.92
2023-04-26T02:35:37.914Z,65.40
2023-04-26T02:38:04.614Z,64.31
2023-04-26T02:40:31.015Z,64.86
2023-04-26T02:42:57.584Z,65.46
2023-04-26T02:45:24.026Z,65.18
2023-04-26T02:47:50.458Z,65.22
2023-04-26T02:50:16.908Z,64.16
2023-04-26T02:52:43.310Z,64.21
2023-04-26T02:55:09.986Z,64.37
2023-04-26T02:57:36.665Z,63.11
2023-04-26T03:00:05.394Z,62.92
2023-04-26T03:02:32.340Z,63.31
2023-04-26T03:04:58.957Z,63.66
2023-04-26T03:07:25.838Z,64.20
2023-04-26T03:09:52.188Z,64.14
2023-04-26T03:12:18.625Z,64.43
2023-04-26T03:14:45.025Z,64.42
2023-04-26T03:17:11.904Z,64.15
2023-04-26T03:19:38.260Z,64.17
2023-04-26T03:22:04.725Z,63.82
2023-04-26T03:24:31.683Z,63.06
2023-04-26T03:26:58.126Z,63.27
2023-04-26T03:29:24.516Z,63.00
2023-04-26T03:31:51.179Z,63.82
2023-04-26T03:34:17.645Z,64.00
2023-04-26T03:36:44.119Z,63.80
2023-04-26T03:39:11.344Z,64.70
2023-04-26T03:41:39.479Z,64.82
2023-04-26T03:44:06.128Z,64.52
2023-04-26T03:46:32.591Z,64.63
2023-04-26T03:48:59.017Z,63.69
2023-04-26T03:51:25.477Z,64.21
2023-04-26T03:53:52.142Z,63.70
2023-04-26T03:56:18.511Z,64.31
2023-04-26T03:58:47.005Z,65.65
2023-04-26T04:01:13.617Z,66.08
2023-04-26T04:03:41.260Z,66.63
2023-04-26T04:06:08.068Z,65.74
2023-04-26T04:08:34.436Z,66.28
2023-04-26T04:11:01.555Z,65.48
2023-04-26T04:13:28.185Z,66.20
2023-04-26T04:15:54.680Z,65.55
2023-04-26T04:18:21.250Z,65.22
2023-04-26T04:20:47.622Z,65.05
2023-04-26T04:23:14.146Z,65.37
2023-04-26T04:25:41.026Z,64.99
2023-04-26T04:28:08.560Z,65.22
2023-04-26T04:30:35.615Z,65.70
2023-04-26T04:33:03.457Z,65.12
2023-04-26T04:35:33.882Z,65.21
2023-04-26T04:38:01.611Z,65.79
2023-04-26T04:40:27.982Z,66.20
2023-04-26T04:42:55.509Z,66.31
2023-04-26T04:45:24.445Z,66.31
2023-04-26T04:47:50.894Z,65.91
2023-04-26T04:50:17.550Z,66.36
2023-04-26T04:52:43.985Z,67.30
2023-04-26T04:55:10.549Z,68.29
2023-04-26T04:57:37.174Z,67.72
2023-04-26T05:00:10.320Z,67.62
2023-04-26T05:02:37.461Z,67.50
2023-04-26T05:05:05.161Z,66.58
2023-04-26T05:07:32.435Z,65.60
2023-04-26T05:09:59.587Z,66.09
2023-04-26T05:12:26.706Z,67.52
2023-04-26T05:14:53.197Z,67.70
2023-04-26T05:17:19.765Z,68.61
2023-04-26T05:19:46.237Z,68.04
2023-04-26T05:22:18.211Z,68.20
2023-04-26T05:24:48.087Z,68.08
2023-04-26T05:27:14.797Z,67.79
2023-04-26T05:29:41.666Z,68.01
2023-04-26T05:32:08.424Z,67.47
2023-04-26T05:34:35.142Z,67.42
2023-04-26T05:37:01.502Z,67.10
2023-04-26T05:39:27.874Z,67.27
2023-04-26T05:41:54.392Z,67.49
2023-04-26T05:44:20.919Z,67.71
2023-04-26T05:46:47.463Z,68.40
2023-04-26T05:49:13.961Z,68.98
2023-04-26T05:51:40.628Z,69.30
2023-04-26T05:54:07.515Z,69.80
2023-04-26T05:56:33.993Z,70.12
2023-04-26T05:59:00.326Z,69.76
2023-04-26T06:01:27.599Z,70.29
2023-04-26T06:03:58.083Z,69.95
2023-04-26T06:06:28.561Z,70.01
2023-04-26T06:08:55.497Z,69.78
2023-04-26T06:11:22.238Z,69.70
2023-04-26T06:13:48.713Z,69.49
2023-04-26T06:16:15.538Z,69.07
2023-04-26T06:18:42.289Z,68.65
2023-04-26T06:21:08.771Z,68.40
2023-04-26T06:23:35.188Z,68.22
2023-04-26T06:26:01.730Z,68.51
2023-04-26T06:28:28.062Z,67.54
2023-04-26T06:30:54.593Z,67.55
2023-04-26T06:33:21.048Z,67.05
2023-04-26T06:35:47.383Z,66.88
2023-04-26T06:38:13.834Z,65.98
2023-04-26T06:40:40.315Z,65.36
2023-04-26T06:43:06.717Z,66.09
2023-04-26T06:45:33.257Z,65.66
2023-04-26T06:48:00.803Z,65.71
2023-04-26T06:50:27.726Z,65.25
2023-04-26T06:52:54.480Z,65.19
2023-04-26T06:55:21.276Z,65.40
2023-04-26T06:57:47.672Z,64.20
2023-04-26T07:00:14.604Z,64.82
2023-04-26T07:02:41.374Z,64.40
2023-04-26T07:05:10.948Z,64.83
2023-04-26T07:07:37.603Z,62.72
2023-04-26T07:10:04.290Z,63.04
2023-04-26T07:12:33.082Z,62.89
2023-04-26T07:15:01.288Z,62.97
2023-04-26T07:17:28.053Z,62.09
2023-04-26T07:19:56.056Z,61.09
2023-04-26T07:22:25.017Z,61.04
2023-04-26T07:24:51.517Z,60.53
2023-04-26T07:27:18.029Z,60.94
2023-04-26T07:29:44.490Z,60.19
2023-04-26T07:32:14.142Z,60.82
2023-04-26T07:34:42.323Z,60.86
2023-04-26T07:37:09.168Z,60.79
2023-04-26T07:39:35.565Z,60.17
2023-04-26T07:42:02.918Z,59.85
2023-04-26T07:44:29.395Z,60.23
2023-04-26T07:46:58.194Z,60.05
2023-04-26T07:49:24.720Z,59.21
2023-04-26T07:51:52.097Z,59.04
2023-04-26T07:54:18.610Z,58.95
2023-04-26T07:56:45.062Z,59.25
2023-04-26T07:59:11.618Z,57.20
2023-04-26T08:01:40.641Z,57.16
2023-04-26T08:04:07.358Z,56.64
2023-04-26T08:06:33.988Z,57.02
2023-04-26T08:09:00.413Z,55.56
2023-04-26T08:11:27.137Z,54.59
2023-04-26T08:13:53.873Z,55.51
2023-04-26T08:16:20.761Z,56.24
2023-04-26T08:18:47.845Z,55.96
2023-04-26T08:21:16.643Z,54.62
2023-04-26T08:23:43.295Z,53.21
2023-04-26T08:26:09.799Z,53.03
2023-04-26T08:28:36.247Z,52.66
2023-04-26T08:31:02.672Z,52.79
2023-04-26T08:33:29.386Z,51.88
2023-04-26T08:35:55.905Z,50.87
2023-04-26T08:38:22.794Z,51.41
2023-04-26T08:40:51.202Z,52.08
2023-04-26T08:43:17.749Z,51.98
2023-04-26T08:45:46.989Z,50.80
2023-04-26T08:48:23.233Z,50.31
2023-04-26T08:50:50.701Z,50.39
2023-04-26T08:53:18.925Z,50.70
2023-04-26T08:55:49.590Z,50.78
2023-04-26T08:58:18.069Z,50.82
2023-04-26T09:00:46.034Z,49.57
2023-04-26T09:03:13.238Z,50.04
2023-04-26T09:05:44.305Z,49.63
2023-04-26T09:08:17.517Z,49.30
2023-04-26T09:10:44.145Z,49.61
2023-04-26T09:13:13.525Z,49.82
2023-04-26T09:15:40.344Z,48.94
2023-04-26T09:18:18.113Z,48.95
2023-04-26T09:20:45.797Z,49.14
2023-04-26T09:23:12.386Z,48.93
2023-04-26T09:25:39.648Z,47.53
2023-04-26T09:28:20.358Z,45.67
2023-04-26T09:30:46.985Z,46.35
2023-04-26T09:33:13.502Z,44.91
2023-04-26T09:35:42.611Z,43.32
2023-04-26T09:38:12.801Z,41.94
2023-04-26T09:40:42.447Z,43.58
2023-04-26T09:43:16.001Z,43.72
2023-04-26T09:45:56.984Z,43.21
2023-04-26T09:48:30.486Z,41.65
2023-04-26T09:51:19.375Z,42.58
2023-04-26T09:53:47.661Z,44.07
2023-04-26T09:56:18.796Z,44.55
2023-04-26T09:58:52.410Z,43.92
2023-04-26T10:01:20.130Z,44.18
2023-04-26T10:03:49.762Z,43.41
2023-04-26T10:06:16.899Z,42.53
2023-04-26T10:08:44.081Z,42.30
2023-04-26T10:11:11.546Z,42.90
2023-04-26T10:13:39.537Z,41.72
2023-04-26T10:16:07.554Z,41.34
2023-04-26T10:18:34.384Z,41.74
2023-04-26T10:21:19.876Z,38.49
2023-04-26T10:23:48.825Z,38.52
2023-04-26T10:26:48.705Z,38.57
2023-04-26T10:29:18.624Z,37.84
2023-04-26T10:32:06.730Z,38.09
2023-04-26T10:34:34.792Z,39.15
2023-04-26T10:37:18.073Z,40.25
2023-04-26T10:39:46.170Z,39.95
2023-04-26T10:42:26.515Z,38.24
2023-04-26T10:44:55.080Z,38.09
2023-04-26T10:47:28.630Z,40.36
2023-04-26T10:50:07.976Z,38.62
2023-04-26T10:52:36.005Z,38.18
2023-04-26T10:55:02.833Z,39.18
2023-04-26T10:57:50.321Z,38.39
2023-04-26T11:00:30.862Z,39.69
2023-04-26T11:03:02.761Z,39.37
2023-04-26T11:05:55.479Z,39.58
2023-04-26T11:08:30.694Z,39.49
2023-04-26T11:11:03.206Z,40.49
2023-04-26T11:13:33.827Z,37.86
2023-04-26T11:16:04.924Z,37.74
2023-04-26T11:18:36.380Z,37.60
2023-04-26T11:21:04.731Z,37.00
2023-04-26T11:23:31.901Z,39.45
2023-04-26T11:26:08.634Z,39.70
2023-04-26T11:28:37.179Z,37.96
2023-04-26T11:31:05.403Z,36.61
2023-04-26T11:33:34.051Z,37.31
2023-04-26T11:36:00.468Z,38.25
2023-04-26T11:38:28.732Z,36.61
2023-04-26T11:40:56.900Z,37.59
2023-04-26T11:43:30.433Z,36.84
2023-04-26T11:46:01.294Z,36.27
2023-04-26T11:48:30.023Z,36.08
2023-04-26T11:51:02.385Z,34.20
2023-04-26T11:53:37.511Z,34.17
2023-04-26T11:56:13.093Z,35.98
2023-04-26T11:58:39.525Z,35.69
2023-04-26T12:01:06.273Z,34.18
2023-04-26T12:03:35.451Z,35.10
2023-04-26T12:06:02.166Z,36.49
2023-04-26T12:08:28.676Z,36.54
2023-04-26T12:11:51.220Z,37.66
2023-04-26T12:14:17.716Z,37.06
2023-04-26T12:16:50.630Z,36.37
2023-04-26T12:19:28.977Z,35.15
2023-04-26T12:21:55.898Z,33.00
2023-04-26T12:24:24.847Z,33.89
2023-04-26T12:26:52.056Z,34.16
2023-04-26T12:29:18.739Z,32.01
2023-04-26T12:31:46.740Z,31.67
2023-04-26T12:34:13.389Z,32.16
2023-04-26T12:36:46.359Z,32.84
2023-04-26T12:39:14.372Z,32.59
2023-04-26T12:41:41.942Z,29.46
2023-04-26T12:44:09.031Z,31.21
2023-04-26T12:46:35.985Z,31.93
2023-04-26T12:49:03.589Z,33.52
2023-04-26T12:51:30.136Z,32.27
2023-04-26T12:53:56.884Z,32.78
2023-04-26T12:56:24.439Z,32.41
2023-04-26T12:58:51.043Z,33.06
2023-04-26T13:01:17.488Z,33.80
2023-04-26T13:03:44.368Z,31.81
2023-04-26T13:06:11.208Z,33.96
2023-04-26T13:08:37.582Z,33.42
2023-04-26T13:11:04.152Z,31.48
2023-04-26T13:13:42.139Z,31.78
2023-04-26T13:16:09.204Z,32.96
2023-04-26T13:18:36.108Z,32.37
2023-04-26T13:21:02.504Z,31.79
2023-04-26T13:23:29.046Z,32.41
2023-04-26T13:25:55.377Z,31.34
2023-04-26T13:28:21.752Z,31.29
2023-04-26T13:30:48.303Z,31.72
2023-04-26T13:33:14.676Z,30.60
2023-04-26T13:36:03.725Z,32.35
2023-04-26T13:38:32.750Z,32.33
2023-04-26T13:40:59.423Z,31.01
2023-04-26T13:43:25.938Z,30.77
2023-04-26T13:45:52.330Z,32.05
2023-04-26T13:48:18.811Z,31.95
2023-04-26T13:50:45.400Z,30.27
2023-04-26T13:53:11.736Z,32.09
2023-04-26T13:55:38.071Z,31.89
2023-04-26T13:58:04.415Z,33.42
2023-04-26T14:00:30.917Z,30.57
2023-04-26T14:02:57.448Z,31.29
2023-04-26T14:05:25.321Z,31.92
2023-04-26T14:07:53.630Z,31.29
2023-04-26T14:10:21.426Z,31.45
2023-04-26T14:12:47.836Z,31.56
2023-04-26T14:15:17.011Z,30.11
2023-04-26T14:17:43.513Z,30.45
2023-04-26T14:20:10.390Z,32.18
2023-04-26T14:22:36.895Z,32.44
2023-04-26T14:25:03.527Z,31.46
2023-04-26T14:27:29.893Z,31.41
2023-04-26T14:29:56.252Z,30.88
2023-04-26T14:32:23.315Z,29.22
2023-04-26T14:34:49.718Z,29.79
2023-04-26T14:37:16.120Z,31.66
2023-04-26T14:39:42.809Z,32.62
2023-04-26T14:42:09.226Z,31.39
2023-04-26T14:44:37.074Z,31.76
2023-04-26T14:47:03.457Z,31.61
2023-04-26T14:49:29.954Z,32.97
2023-04-26T14:51:56.333Z,31.27
2023-04-26T14:54:22.778Z,32.19
2023-04-26T14:56:49.260Z,32.80
2023-04-26T14:59:15.947Z,32.46
2023-04-26T15:01:42.460Z,33.59
2023-04-26T15:04:09.008Z,30.57
2023-04-26T15:06:35.508Z,30.75
2023-04-26T15:09:02.015Z,30.34
2023-04-26T15:11:28.521Z,30.73
2023-04-26T15:13:54.957Z,32.01
2023-04-26T15:16:21.716Z,31.62
2023-04-26T15:18:48.281Z,34.21
2023-04-26T15:21:18.743Z,30.85
2023-04-26T15:23:45.187Z,30.44
2023-04-26T15:26:11.962Z,30.67
2023-04-26T15:28:38.504Z,30.79
2023-04-26T15:31:07.775Z,31.26
2023-04-26T15:33:34.407Z,31.65
2023-04-26T15:36:00.775Z,29.98
2023-04-26T15:38:27.200Z,29.58
2023-04-26T15:40:56.459Z,29.43
2023-04-26T15:43:22.796Z,29.40
2023-04-26T15:45:49.525Z,29.75
2023-04-26T15:48:16.089Z,28.99
2023-04-26T15:50:42.704Z,28.96
2023-04-26T15:53:09.265Z,29.83
2023-04-26T15:55:35.796Z,27.59
2023-04-26T15:58:02.216Z,30.53
2023-04-26T16:00:28.589Z,30.24
2023-04-26T16:02:56.753Z,28.02
2023-04-26T16:05:23.244Z,30.66
2023-04-26T16:07:49.656Z,29.08
2023-04-26T16:10:16.271Z,28.67
2023-04-26T16:12:44.337Z,29.08
2023-04-26T16:15:11.064Z,29.17
2023-04-26T16:17:39.361Z,30.40
2023-04-26T16:20:07.792Z,28.95
2023-04-26T16:22:35.299Z,27.25
2023-04-26T16:25:03.925Z,28.36
2023-04-26T16:27:30.364Z,27.49
2023-04-26T16:30:34.025Z,28.98
2023-04-26T16:33:00.500Z,27.77
2023-04-26T16:35:26.953Z,29.93
2023-04-26T16:37:53.298Z,30.11
2023-04-26T16:40:19.742Z,31.60
2023-04-26T16:42:46.108Z,32.43
2023-04-26T16:45:15.515Z,31.20
2023-04-26T16:47:42.767Z,32.13
2023-04-26T16:50:09.543Z,32.06
2023-04-26T16:52:36.111Z,32.46
2023-04-26T16:55:02.847Z,32.23
2023-04-26T16:57:29.417Z,32.60
2023-04-26T16:59:55.830Z,33.88
2023-04-26T17:02:22.894Z,34.29
2023-04-26T17:04:50.238Z,34.09
2023-04-26T17:07:17.211Z,33.48
2023-04-26T17:09:43.589Z,33.77
2023-04-26T17:12:10.171Z,34.27
2023-04-26T17:14:36.533Z,35.54
2023-04-26T17:17:02.918Z,34.67
2023-04-26T17:19:29.243Z,35.12
2023-04-26T17:21:55.787Z,34.94
2023-04-26T17:24:22.239Z,35.37
2023-04-26T17:26:48.582Z,35.94
2023-04-26T17:29:14.909Z,36.13
2023-04-26T17:31:41.356Z,35.86
2023-04-26T17:34:07.689Z,34.79
2023-04-26T17:36:34.039Z,35.66
2023-04-26T17:39:00.611Z,35.70
2023-04-26T17:41:38.363Z,35.63
2023-04-26T17:44:04.780Z,36.15
2023-04-26T17:46:31.121Z,36.96
2023-04-26T17:48:59.628Z,37.11
2023-04-26T17:51:26.054Z,37.32
2023-04-26T17:53:52.402Z,38.04
2023-04-26T17:56:18.769Z,37.87
2023-04-26T17:59:02.982Z,38.60
2023-04-26T18:01:30.263Z,38.65
2023-04-26T18:03:56.923Z,39.08
2023-04-26T18:06:23.377Z,39.06
2023-04-26T18:08:49.810Z,39.35
2023-04-26T18:11:16.240Z,39.04
2023-04-26T18:13:42.642Z,38.30
2023-04-26T18:16:09.227Z,39.02
2023-04-26T18:18:35.644Z,38.80
2023-04-26T18:21:02.026Z,38.79
2023-04-26T18:23:28.377Z,38.27
2023-04-26T18:25:55.923Z,38.60
2023-04-26T18:28:22.574Z,38.96
2023-04-26T18:30:49.073Z,38.97
2023-04-26T18:33:15.610Z,38.98
2023-04-26T18:35:42.014Z,40.19
2023-04-26T18:38:08.374Z,39.94
2023-04-26T18:40:35.666Z,38.99
2023-04-26T18:43:02.039Z,39.13
2023-04-26T18:45:28.484Z,38.96
2023-04-26T18:47:55.466Z,38.95
2023-04-26T18:50:21.973Z,39.43
2023-04-26T18:52:48.574Z,39.41
2023-04-26T18:55:14.892Z,38.79
2023-04-26T18:57:41.293Z,39.01
2023-04-26T19:00:08.351Z,39.96
2023-04-26T19:02:36.367Z,39.40
2023-04-26T19:05:04.491Z,39.31
2023-04-26T19:07:31.149Z,39.83
2023-04-26T19:10:00.571Z,39.49
2023-04-26T19:12:27.457Z,39.63
2023-04-26T19:14:54.206Z,40.26
2023-04-26T19:17:20.729Z,40.67
2023-04-26T19:19:47.527Z,41.70
2023-04-26T19:22:13.906Z,41.32
2023-04-26T19:24:40.490Z,41.46
2023-04-26T19:27:06.869Z,42.09
2023-04-26T19:29:33.188Z,41.31
2023-04-26T19:31:59.969Z,40.83
2023-04-26T19:34:26.661Z,40.13
2023-04-26T19:36:53.018Z,41.04
2023-04-26T19:39:20.697Z,40.54
2023-04-26T19:41:48.343Z,40.93
2023-04-26T19:44:14.771Z,41.44
2023-04-26T19:46:41.500Z,42.67
2023-04-26T19:49:07.875Z,41.21
2023-04-26T19:51:34.247Z,41.86
2023-04-26T19:54:00.590Z,42.17
2023-04-26T19:56:26.967Z,42.39
2023-04-26T19:58:53.353Z,41.63
2023-04-26T20:01:19.937Z,41.14
2023-04-26T20:03:46.403Z,42.21
2023-04-26T20:06:13.951Z,42.35
2023-04-26T20:08:41.044Z,41.85
2023-04-26T20:11:10.249Z,41.94
2023-04-26T20:13:36.934Z,41.92
2023-04-26T20:16:03.654Z,42.26
2023-04-26T20:18:30.067Z,42.25
2023-04-26T20:20:56.401Z,42.40
2023-04-26T20:23:22.781Z,42.41
2023-04-26T20:25:50.850Z,42.22
2023-04-26T20:28:17.254Z,41.95
2023-04-26T20:30:43.649Z,42.83
2023-04-26T20:33:10.165Z,42.49
2023-04-26T20:35:36.643Z,43.12
2023-04-26T20:38:03.099Z,44.13
2023-04-26T20:40:29.453Z,43.30
2023-04-26T20:42:55.972Z,43.61
2023-04-26T20:45:22.386Z,43.83
2023-04-26T20:47:48.896Z,44.63
2023-04-26T20:50:15.243Z,43.15
2023-04-26T20:52:41.857Z,44.01
2023-04-26T20:55:08.742Z,44.34
2023-04-26T20:57:36.147Z,44.02
2023-04-26T21:00:03.339Z,43.54
2023-04-26T21:02:30.253Z,44.02
2023-04-26T21:04:56.846Z,44.00
2023-04-26T21:07:23.406Z,44.46
2023-04-26T21:09:49.836Z,44.19
2023-04-26T21:12:16.209Z,44.04
2023-04-26T21:14:45.590Z,45.04
2023-04-26T21:17:11.996Z,45.62
2023-04-26T21:19:38.316Z,46.15
2023-04-26T21:22:04.690Z,46.35
2023-04-26T21:24:31.068Z,46.08
2023-04-26T21:26:57.425Z,46.97
2023-04-26T21:29:23.816Z,46.67
2023-04-26T21:31:50.343Z,47.06
2023-04-26T21:34:16.699Z,47.27
2023-04-26T21:36:43.079Z,46.17
2023-04-26T21:39:10.030Z,45.62
2023-04-26T21:41:36.732Z,46.01
2023-04-26T21:44:03.239Z,46.00
2023-04-26T21:46:29.635Z,46.50
2023-04-26T21:48:56.592Z,46.36
2023-04-26T21:51:23.187Z,46.17
2023-04-26T21:53:49.599Z,46.58
2023-04-26T21:56:16.374Z,47.00
2023-04-26T21:58:42.839Z,46.43
2023-04-26T22:01:11.663Z,46.74
2023-04-26T22:03:38.306Z,46.92
2023-04-26T22:06:05.952Z,47.35
2023-04-26T22:08:32.362Z,47.03
2023-04-26T22:10:59.458Z,47.19
2023-04-26T22:13:26.068Z,47.24
2023-04-26T22:15:52.406Z,47.56
2023-04-26T22:18:18.847Z,47.44
2023-04-26T22:20:45.543Z,47.40
2023-04-26T22:23:11.995Z,48.10
2023-04-26T22:25:38.602Z,48.27
2023-04-26T22:28:05.152Z,47.94
2023-04-26T22:30:31.690Z,48.64
2023-04-26T22:32:59.646Z,48.59
2023-04-26T22:35:27.681Z,48.90
2023-04-26T22:37:55.306Z,49.29
2023-04-26T22:40:21.725Z,49.40
2023-04-26T22:42:48.163Z,49.50
2023-04-26T22:45:14.595Z,49.11
2023-04-26T22:47:41.466Z,48.77
2023-04-26T22:50:08.667Z,49.51
2023-04-26T22:52:35.728Z,48.72
2023-04-26T22:55:02.405Z,49.35
2023-04-26T22:57:29.441Z,49.26
2023-04-26T22:59:55.978Z,49.14
2023-04-26T23:02:23.307Z,49.06
2023-04-26T23:04:49.940Z,49.07
2023-04-26T23:07:16.445Z,49.25
2023-04-26T23:09:42.910Z,50.23
2023-04-26T23:12:09.767Z,49.63
2023-04-26T23:14:36.178Z,50.82
2023-04-26T23:17:02.960Z,50.33
2023-04-26T23:19:29.455Z,51.05
2023-04-26T23:21:55.874Z,50.85
2023-04-26T23:24:22.307Z,51.26
2023-04-26T23:26:48.695Z,52.20
2023-04-26T23:29:15.304Z,52.47
2023-04-26T23:31:42.149Z,52.86
2023-04-26T23:34:08.630Z,53.19
2023-04-26T23:36:35.233Z,53.00
2023-04-26T23:39:01.600Z,53.37
2023-04-26T23:41:27.956Z,54.22
2023-04-26T23:43:54.368Z,54.73
2023-04-26T23:46:20.953Z,53.20
2023-04-26T23:48:47.293Z,53.47
2023-04-26T23:51:13.738Z,53.87
2023-04-26T23:53:40.209Z,53.75
2023-04-26T23:56:07.324Z,55.08
2023-04-26T23:58:33.804Z,54.51
